Time;durP1;ratioP1;P1;durP2;ratioP2;P2;SDS_P1;SDS_P2;PMS_P1;PMS_P2;Temp;Humidity;BMP_temperature;BMP_pressure;BME280_temperature;BME280_humidity;BME280_pressure;Samples;Min_cycle;Max_cycle;Signal;HPM_P1;HPM_P2
2023/07/07 00:01:07;;;;;;;6.50;4.80;;;;;;;19.17;90.54;98896.86;104822;1272;61186;-18
2023/07/07 00:03:35;;;;;;;7.30;3.10;;;;;;;19.06;91.72;98895.52;105016;1269;61202;-18
2023/07/07 00:06:03;;;;;;;5.10;3.00;;;;;;;19.29;91.55;98887.61;104830;1267;70857;-18
2023/07/07 00:08:31;;;;;;;5.70;3.90;;;;;;;19.61;88.86;98884.22;105027;1267;74306;-18
2023/07/07 00:10:59;;;;;;;4.90;4.10;;;;;;;19.67;88.64;98882.28;104898;1267;71507;-18
2023/07/07 00:13:28;;;;;;;6.00;4.20;;;;;;;19.42;88.78;98878.22;103118;1269;2750695;-18
2023/07/07 00:16:02;;;;;;;8.20;4.70;;;;;;;18.99;91.04;98878.44;105145;1269;61700;-18
2023/07/07 00:18:30;;;;;;;4.80;3.10;;;;;;;18.77;92.80;98870.27;105155;1267;71035;-18
2023/07/07 00:20:59;;;;;;;4.00;3.20;;;;;;;19.16;91.55;98866.11;105025;1266;73225;-18
2023/07/07 00:23:29;;;;;;;4.20;3.40;;;;;;;19.62;89.48;98859.84;105597;1254;72618;-17
2023/07/07 00:26:08;;;;;;;4.40;4.00;;;;;;;19.64;88.25;98855.77;105352;1251;61148;-18
2023/07/07 00:28:35;;;;;;;4.80;4.20;;;;;;;19.42;88.23;98854.30;105691;1259;61157;-18
2023/07/07 00:31:03;;;;;;;6.60;2.50;;;;;;;19.17;88.70;98846.31;105929;1257;73008;-18
2023/07/07 00:33:31;;;;;;;6.80;4.60;;;;;;;19.44;88.67;98843.38;105880;1254;74274;-18
2023/07/07 00:36:00;;;;;;;5.90;4.10;;;;;;;19.71;86.54;98840.92;105973;1254;72700;-19
2023/07/07 00:38:27;;;;;;;8.20;4.30;;;;;;;19.54;86.48;98836.17;105868;1254;61067;-18
2023/07/07 00:40:59;;;;;;;4.50;4.00;;;;;;;19.22;87.56;98839.10;105647;1256;61127;-18
2023/07/07 00:43:26;;;;;;;7.20;4.80;;;;;;;18.91;89.00;98841.91;105613;1254;72812;-18
2023/07/07 00:45:56;;;;;;;3.40;2.50;;;;;;;18.69;90.56;98841.56;105652;1258;73062;-18
2023/07/07 00:48:27;;;;;;;3.80;2.70;;;;;;;19.07;90.42;98839.04;105596;1262;72678;-18
2023/07/07 00:51:02;;;;;;;4.80;3.90;;;;;;;19.45;88.05;98842.54;105664;1254;61260;-18
2023/07/07 00:53:30;;;;;;;5.60;4.60;;;;;;;19.38;87.41;98843.23;105687;1254;61058;-18
2023/07/07 00:56:05;;;;;;;11.30;5.80;;;;;;;19.14;88.04;98843.80;105681;1254;73273;-18
2023/07/07 00:58:33;;;;;;;8.10;6.20;;;;;;;18.91;89.12;98843.52;105709;1259;74244;-18
2023/07/07 01:01:05;;;;;;;5.60;3.80;;;;;;;18.75;90.23;98845.91;105737;1258;72034;-18
2023/07/07 01:03:37;;;;;;;9.30;5.10;;;;;;;19.27;90.42;98844.67;105729;1254;60988;-18
2023/07/07 01:06:06;;;;;;;9.70;5.90;;;;;;;19.76;87.83;98846.85;105697;1256;61127;-18
2023/07/07 01:08:35;;;;;;;13.30;6.90;;;;;;;19.77;86.75;98845.20;105619;1261;73125;-18
2023/07/07 01:11:03;;;;;;;16.60;7.30;;;;;;;19.55;86.75;98847.27;105665;1259;74729;-18
2023/07/07 01:13:31;;;;;;;12.60;6.90;;;;;;;19.26;87.27;98848.81;105517;1260;71405;-18
2023/07/07 01:16:11;;;;;;;8.30;4.50;;;;;;;19.05;88.46;98852.19;105559;1259;61675;-18
2023/07/07 01:19:05;;;;;;;7.70;4.30;;;;;;;19.51;88.48;98850.23;105716;1259;61352;-18
2023/07/07 01:21:49;;;;;;;6.70;4.60;;;;;;;19.97;86.55;98845.38;105692;1262;70859;-18
2023/07/07 01:24:43;;;;;;;10.10;5.30;;;;;;;19.89;85.78;98845.64;105741;1259;73157;-18
2023/07/07 01:27:32;;;;;;;;;;;;;;;19.60;86.10;98847.85;105692;1260;71476;-18
2023/07/07 01:30:19;;;;;;;8.40;5.70;;;;;;;19.27;86.91;98851.52;105689;1254;61078;-18
2023/07/07 01:32:47;;;;;;;6.40;3.80;;;;;;;19.04;88.07;98857.36;105692;1255;61096;-18
2023/07/07 01:35:17;;;;;;;5.30;4.30;;;;;;;19.50;87.80;98858.92;105669;1259;73031;-18
2023/07/07 01:45:49;;;;;;;9.10;4.50;;;;;;;19.42;86.80;98868.55;103003;1286;599589;-18
2023/07/07 01:48:34;;;;;;;3.20;2.90;;;;;;;19.15;87.83;98869.20;104799;1267;61282;-18
2023/07/07 01:51:02;;;;;;;7.10;4.10;;;;;;;19.67;87.14;98870.14;104872;1264;61116;-19
2023/07/07 01:53:30;;;;;;;4.80;4.30;;;;;;;19.97;85.40;98870.02;104828;1271;72200;-18
2023/07/07 01:55:59;;;;;;;6.90;4.50;;;;;;;19.85;84.98;98864.26;104854;1264;74327;-18
2023/07/07 02:06:04;;;;;;;4.60;3.30;;;;;;;18.70;88.98;98866.36;102685;1290;600223;-18
2023/07/07 02:08:32;;;;;;;6.80;3.90;;;;;;;19.11;88.57;98869.58;104841;1268;61137;-18
2023/07/07 02:11:00;;;;;;;7.90;4.30;;;;;;;19.45;86.78;98867.45;104804;1266;61178;-18
2023/07/07 02:13:28;;;;;;;8.30;5.20;;;;;;;19.34;86.14;98867.81;104815;1267;72210;-18
2023/07/07 02:23:34;;;;;;;6.00;3.40;;;;;;;18.32;91.88;98861.34;102684;1290;600048;-17
2023/07/07 02:26:02;;;;;;;6.10;4.10;;;;;;;18.97;91.12;98857.27;104979;1267;61291;-18
2023/07/07 02:28:30;;;;;;;7.00;4.40;;;;;;;19.44;88.54;98853.42;104900;1265;60937;-19
2023/07/07 02:30:57;;;;;;;5.90;5.30;;;;;;;19.44;87.34;98857.43;104808;1272;72183;-18
2023/07/07 02:33:31;;;;;;;6.20;5.20;;;;;;;19.18;87.43;98853.27;104871;1271;74428;-17
2023/07/07 02:36:06;;;;;;;8.80;5.00;;;;;;;18.86;88.49;98856.94;104343;1267;2546247;-19
2023/07/07 02:50:58;;;;;;;8.90;6.30;;;;;;;18.55;90.68;98854.11;102649;1293;599896;-18
2023/07/07 02:53:28;;;;;;;3.90;3.40;;;;;;;18.37;91.93;98861.25;104781;1269;61168;-18
2023/07/07 02:55:56;;;;;;;5.50;3.90;;;;;;;18.77;91.27;98857.33;104669;1267;61174;-18
2023/07/07 02:58:24;;;;;;;9.10;4.80;;;;;;;19.03;89.44;98856.66;104786;1266;72219;-18
2023/07/07 03:00:51;;;;;;;5.60;4.80;;;;;;;18.91;89.51;98856.52;104781;1266;74323;-18
2023/07/07 03:03:20;;;;;;;8.00;5.70;;;;;;;18.64;90.59;98854.44;102859;1267;2685628;-18
2023/07/07 03:13:26;;;;;;;8.60;5.40;;;;;;;18.90;89.82;98857.88;102564;1295;600555;-18
2023/07/07 03:15:54;;;;;;;9.60;6.20;;;;;;;18.68;90.48;98857.42;104827;1266;61193;-18
2023/07/07 03:18:24;;;;;;;8.00;4.70;;;;;;;18.51;91.63;98859.08;104788;1267;61299;-19
2023/07/07 03:20:56;;;;;;;9.30;4.80;;;;;;;18.81;91.44;98863.39;105148;1269;72223;-19
2023/07/07 03:23:25;;;;;;;7.00;5.20;;;;;;;19.06;89.65;98861.33;105189;1269;74320;-19
2023/07/07 03:25:53;;;;;;;5.30;4.60;;;;;;;19.06;88.96;98867.83;103198;1274;2603294;-20
2023/07/07 03:28:22;;;;;;;7.60;5.40;;;;;;;18.86;89.91;98864.63;105092;1263;61161;-19
2023/07/07 03:30:50;;;;;;;6.10;3.50;;;;;;;18.71;91.15;98867.81;105187;1265;61177;-19
2023/07/07 03:33:19;;;;;;;8.70;4.60;;;;;;;19.11;90.47;98862.56;105258;1267;71304;-19
2023/07/07 03:35:50;;;;;;;8.00;4.90;;;;;;;19.42;88.49;98858.37;105271;1266;74292;-19
2023/07/07 03:38:19;;;;;;;10.20;5.30;;;;;;;19.33;88.23;98854.36;104853;1271;70800;-19
2023/07/07 03:40:47;;;;;;;8.40;5.30;;;;;;;19.10;88.87;98854.80;105184;1267;61183;-19
2023/07/07 03:43:23;;;;;;;6.90;4.60;;;;;;;18.77;91.26;98857.58;104863;1267;61122;-19
2023/07/07 03:45:52;;;;;;;7.90;4.80;;;;;;;19.10;90.76;98859.88;105229;1266;73027;-19
2023/07/07 03:48:19;;;;;;;5.80;5.20;;;;;;;19.30;89.46;98859.65;104993;1270;74342;-19
2023/07/07 03:58:27;;;;;;;9.50;4.90;;;;;;;19.31;91.30;98872.20;102699;1292;600224;-18
2023/07/07 04:08:26;;;;;;;6.60;4.20;;;;;;;19.02;92.25;98883.60;102666;1289;600342;-19
2023/07/07 04:11:04;;;;;;;9.90;4.60;;;;;;;19.51;90.76;98879.83;104811;1264;61200;-24
2023/07/07 04:13:35;;;;;;;6.60;5.20;;;;;;;19.80;88.09;98877.05;104821;1264;61075;-20
2023/07/07 04:16:06;;;;;;;7.40;5.80;;;;;;;19.71;88.24;98886.02;104822;1266;71986;-20
2023/07/07 04:26:12;;;;;;;8.20;6.50;;;;;;;19.71;88.45;98891.43;102664;1295;599961;-21
2023/07/07 04:28:40;;;;;;;8.50;6.40;;;;;;;19.52;89.61;98894.81;104860;1271;61175;-20
2023/07/07 04:31:09;;;;;;;9.30;6.30;;;;;;;19.49;89.77;98895.52;104887;1267;61100;-19
2023/07/07 04:33:36;;;;;;;6.00;4.90;;;;;;;19.34;90.18;98898.94;104846;1272;72320;-19
2023/07/07 04:43:50;;;;;;;10.30;7.30;;;;;;;19.68;88.38;98902.23;102612;1293;600168;-18
2023/07/07 04:46:24;;;;;;;6.90;5.10;;;;;;;19.39;90.20;98906.41;105500;1262;61631;-18
2023/07/07 04:56:55;;;;;;;10.00;6.30;;;;;;;19.35;90.69;98921.83;102796;1291;612666;-19
2023/07/07 04:59:22;;;;;;;11.60;6.60;;;;;;;19.27;92.71;98928.25;105066;1267;61808;-20
2023/07/07 05:01:49;;;;;;;11.90;8.60;;;;;;;19.62;90.20;98928.72;105098;1265;61157;-20
2023/07/07 05:04:16;;;;;;;9.50;7.90;;;;;;;19.58;89.77;98933.19;105096;1267;72338;-20
2023/07/07 05:06:45;;;;;;;9.50;6.90;;;;;;;19.58;90.63;98935.10;105099;1267;74391;-20
2023/07/07 05:09:14;;;;;;;13.00;8.40;;;;;;;19.61;89.95;98931.77;103238;1269;2572790;-20
2023/07/07 05:11:41;;;;;;;7.50;5.40;;;;;;;19.56;90.28;98929.91;105215;1263;61681;-20
2023/07/07 05:14:08;;;;;;;6.40;5.10;;;;;;;20.01;90.07;98928.54;105183;1268;61113;-20
2023/07/07 05:16:37;;;;;;;7.60;5.60;;;;;;;20.59;87.36;98929.70;105211;1264;72168;-20
2023/07/07 05:19:05;;;;;;;8.30;5.70;;;;;;;20.65;85.73;98932.92;105071;1263;74324;-20
2023/07/07 05:21:33;;;;;;;9.90;6.20;;;;;;;20.51;85.96;98934.04;104981;1266;72634;-20
2023/07/07 05:24:00;;;;;;;7.70;6.10;;;;;;;20.33;86.57;98936.55;104999;1262;61173;-20
2023/07/07 05:26:27;;;;;;;5.00;3.80;;;;;;;20.20;87.63;98939.30;105056;1267;61234;-20
2023/07/07 05:28:58;;;;;;;8.00;4.60;;;;;;;20.65;86.64;98941.09;105214;1263;73126;-20
2023/07/07 05:31:24;;;;;;;7.30;4.90;;;;;;;21.14;84.79;98934.95;105029;1264;74137;-20
2023/07/07 05:33:51;;;;;;;9.60;5.60;;;;;;;21.21;83.69;98933.39;104985;1264;72556;-21
2023/07/07 05:36:19;;;;;;;8.90;6.70;;;;;;;21.02;83.19;98936.83;104856;1264;61149;-21
2023/07/07 05:38:46;;;;;;;7.60;6.40;;;;;;;20.70;84.78;98939.63;104857;1266;61144;-21
2023/07/07 05:41:13;;;;;;;6.00;4.40;;;;;;;20.34;85.82;98941.27;104811;1264;73282;-21
2023/07/07 05:43:41;;;;;;;8.60;5.20;;;;;;;20.72;85.84;98944.25;105112;1264;74436;-20
2023/07/07 05:46:13;;;;;;;8.50;5.50;;;;;;;21.09;83.90;98948.38;105037;1264;72753;-20
2023/07/07 05:48:41;;;;;;;6.50;5.80;;;;;;;21.02;83.49;98954.98;104792;1264;61032;-20
2023/07/07 05:51:10;;;;;;;8.20;6.30;;;;;;;20.83;84.03;98958.84;105032;1264;61074;-20
2023/07/07 05:53:40;;;;;;;8.60;6.20;;;;;;;20.58;85.09;98959.04;104641;1264;71572;-20
2023/07/07 05:56:11;;;;;;;7.20;4.40;;;;;;;20.36;87.44;98963.38;104924;1264;74386;-21
2023/07/07 05:58:38;;;;;;;5.40;4.90;;;;;;;20.76;86.38;98962.91;104829;1266;72389;-20
2023/07/07 06:01:13;;;;;;;9.20;5.20;;;;;;;21.10;83.96;98967.65;105061;1269;61039;-20
2023/07/07 06:03:40;;;;;;;8.60;6.00;;;;;;;21.00;84.12;98961.96;104769;1264;61272;-21
2023/07/07 06:06:07;;;;;;;10.80;7.20;;;;;;;20.79;84.39;98962.13;105180;1267;72834;-22
2023/07/07 06:08:34;;;;;;;8.80;6.30;;;;;;;20.55;85.98;98965.23;105115;1269;74323;-21
2023/07/07 06:11:02;;;;;;;7.00;5.40;;;;;;;20.42;87.04;98966.39;105124;1264;72789;-21
2023/07/07 06:13:29;;;;;;;6.40;5.40;;;;;;;20.87;86.09;98968.07;105119;1264;61069;-21
2023/07/07 06:15:58;;;;;;;8.10;6.60;;;;;;;21.20;85.15;98965.29;105117;1267;61064;-21
2023/07/07 06:18:26;;;;;;;7.20;6.30;;;;;;;21.14;84.66;98964.58;104983;1264;72907;-21
2023/07/07 06:20:55;;;;;;;8.70;6.60;;;;;;;21.02;85.37;98966.53;104952;1264;74349;-21
2023/07/07 06:23:23;;;;;;;7.20;5.00;;;;;;;20.84;86.07;98968.67;104663;1267;72713;-21
2023/07/07 06:25:50;;;;;;;11.30;5.70;;;;;;;21.17;85.44;98969.41;104985;1264;61052;-21
2023/07/07 06:28:17;;;;;;;8.60;6.40;;;;;;;21.44;83.59;98965.10;105036;1264;61120;-21
2023/07/07 06:30:47;;;;;;;7.80;6.60;;;;;;;21.37;83.71;98965.76;105163;1267;72023;-21
2023/07/07 06:33:16;;;;;;;9.70;7.30;;;;;;;21.16;84.85;98972.16;104872;1267;74220;-21
2023/07/07 06:35:46;;;;;;;7.70;5.70;;;;;;;20.84;85.67;98978.27;104846;1264;72675;-21
2023/07/07 06:38:13;;;;;;;8.10;6.30;;;;;;;21.04;85.16;98980.89;105619;1257;61055;-21
2023/07/07 06:40:40;;;;;;;9.00;6.70;;;;;;;21.24;84.45;98977.58;105439;1258;61106;-21
2023/07/07 06:43:07;;;;;;;8.20;6.70;;;;;;;21.20;83.82;98980.94;105600;1257;72816;-21
2023/07/07 06:45:35;;;;;;;8.90;7.00;;;;;;;21.01;85.42;98981.65;105341;1257;74275;-21
2023/07/07 06:48:02;;;;;;;6.40;5.00;;;;;;;20.89;86.29;98986.30;105457;1258;72747;-20
2023/07/07 06:50:37;;;;;;;8.20;6.00;;;;;;;21.31;85.76;98988.55;105363;1257;61089;-20
2023/07/07 06:53:05;;;;;;;7.00;5.80;;;;;;;21.66;83.66;98987.37;105188;1258;61141;-22
2023/07/07 06:55:32;;;;;;;7.90;6.60;;;;;;;21.67;83.52;98991.00;105699;1257;72963;-20
2023/07/07 06:57:59;;;;;;;8.00;7.10;;;;;;;21.42;84.02;98994.79;105654;1257;74329;-20
2023/07/07 07:00:26;;;;;;;8.60;6.70;;;;;;;21.26;84.77;98997.65;105626;1258;72630;-20
2023/07/07 07:02:54;;;;;;;6.20;5.20;;;;;;;21.14;86.39;99002.61;105563;1257;61779;-21
2023/07/07 07:05:21;;;;;;;7.60;6.20;;;;;;;21.52;85.53;99005.04;105646;1260;61105;-20
2023/07/07 07:07:50;;;;;;;7.90;6.50;;;;;;;21.84;83.53;99005.58;105587;1258;72909;-21
2023/07/07 07:10:17;;;;;;;9.00;7.40;;;;;;;21.78;83.38;99008.63;105617;1257;74370;-20
2023/07/07 07:12:44;;;;;;;8.80;7.30;;;;;;;21.56;84.07;99007.49;105609;1257;72582;-20
2023/07/07 07:15:11;;;;;;;10.40;7.20;;;;;;;21.28;84.65;99014.61;105587;1257;61209;-20
2023/07/07 07:17:39;;;;;;;10.30;5.50;;;;;;;21.03;86.54;99014.56;105608;1258;61158;-21
2023/07/07 07:20:07;;;;;;;7.90;6.20;;;;;;;21.42;86.16;99018.67;105579;1257;73289;-20
2023/07/07 07:22:35;;;;;;;10.50;6.40;;;;;;;21.81;84.38;99016.70;105318;1264;74523;-20
2023/07/07 07:25:02;;;;;;;8.50;6.60;;;;;;;21.77;84.11;99019.77;105608;1257;71681;-20
2023/07/07 07:27:29;;;;;;;9.50;7.60;;;;;;;21.62;84.30;99025.83;105651;1256;61006;-21
2023/07/07 07:29:56;;;;;;;11.90;7.60;;;;;;;21.33;85.50;99023.68;105599;1260;61269;-21
2023/07/07 07:32:24;;;;;;;7.10;6.20;;;;;;;21.23;86.33;99025.14;105598;1258;73082;-20
2023/07/07 07:34:51;;;;;;;8.10;6.00;;;;;;;21.66;85.59;99024.66;105637;1257;74863;-20
2023/07/07 07:37:18;;;;;;;10.50;8.00;;;;;;;21.87;83.90;99021.98;105395;1257;72660;-20
2023/07/07 07:39:46;;;;;;;8.40;6.90;;;;;;;21.79;84.70;99025.30;105572;1257;61119;-20
2023/07/07 07:42:13;;;;;;;10.70;8.50;;;;;;;21.75;84.62;99024.09;105566;1257;61174;-20
2023/07/07 07:44:42;;;;;;;10.20;7.40;;;;;;;21.57;85.25;99025.23;105604;1258;72806;-20
2023/07/07 07:47:09;;;;;;;8.20;6.40;;;;;;;21.48;86.22;99024.61;105605;1258;74315;-20
2023/07/07 07:49:36;;;;;;;8.70;6.60;;;;;;;21.79;85.32;99027.02;105705;1256;72536;-21
2023/07/07 07:52:05;;;;;;;8.60;7.40;;;;;;;22.16;82.70;99022.64;105666;1257;61025;-20
2023/07/07 07:54:32;;;;;;;10.70;8.30;;;;;;;22.09;82.56;99026.72;105349;1257;61165;-20
2023/07/07 07:56:59;;;;;;;10.20;8.60;;;;;;;21.85;83.73;99031.42;105620;1257;73035;-21
2023/07/07 07:59:26;;;;;;;11.60;8.40;;;;;;;21.66;84.85;99030.65;105431;1257;74878;-19
2023/07/07 08:01:53;;;;;;;12.20;8.50;;;;;;;21.53;85.49;99033.60;105648;1257;72467;-20
2023/07/07 08:04:19;;;;;;;19.30;12.10;;;;;;;21.95;84.43;99030.91;105571;1257;61055;-19
2023/07/07 08:06:50;;;;;;;18.70;12.80;;;;;;;22.38;82.16;99022.92;105638;1257;61099;-20
2023/07/07 08:09:18;;;;;;;17.00;13.20;;;;;;;22.37;81.59;99021.33;105522;1257;73096;-20
2023/07/07 08:11:46;;;;;;;17.40;12.50;;;;;;;22.13;81.92;99024.19;105384;1257;74217;-22
2023/07/07 08:14:17;;;;;;;11.80;9.70;;;;;;;21.88;82.97;99030.79;105599;1257;72654;-19
2023/07/07 08:16:45;;;;;;;8.50;6.80;;;;;;;21.61;84.19;99037.56;105177;1257;61970;-20
2023/07/07 08:19:12;;;;;;;8.70;6.60;;;;;;;21.96;83.82;99035.66;105349;1257;61354;-21
2023/07/07 08:21:45;;;;;;;;;;;;;;;22.22;82.75;99037.67;105535;1261;73519;-19
2023/07/07 08:24:12;;;;;;;9.20;7.80;;;;;;;22.06;83.05;99032.02;105644;1258;74332;-18
2023/07/07 08:26:40;;;;;;;10.70;8.50;;;;;;;21.76;84.42;99036.24;105679;1257;73169;-19
2023/07/07 08:29:09;;;;;;;10.50;8.40;;;;;;;21.49;85.86;99035.01;105550;1257;61132;-19
2023/07/07 08:31:36;;;;;;;10.90;7.00;;;;;;;21.24;87.38;99040.74;105625;1257;61150;-20
2023/07/07 08:34:03;;;;;;;8.70;7.50;;;;;;;21.57;87.21;99045.73;105637;1257;73306;-19
2023/07/07 08:36:31;;;;;;;10.50;7.80;;;;;;;21.79;85.69;99048.86;105651;1257;74370;-20
2023/07/07 08:39:09;;;;;;;11.00;8.80;;;;;;;21.70;85.25;99049.19;105609;1257;73093;-20
2023/07/07 08:41:39;;;;;;;13.10;8.80;;;;;;;21.29;87.04;99048.73;105391;1257;61141;-20
2023/07/07 08:44:07;;;;;;;7.20;6.30;;;;;;;20.90;88.81;99046.64;105592;1262;61196;-20
2023/07/07 08:46:40;;;;;;;8.50;7.70;;;;;;;21.21;88.53;99048.11;105641;1257;72876;-21
2023/07/07 08:49:15;;;;;;;12.70;9.40;;;;;;;21.43;87.01;99048.67;105355;1264;74328;-21
2023/07/07 08:51:54;;;;;;;9.80;8.80;;;;;;;21.24;87.23;99053.34;105263;1258;72473;-21
2023/07/07 08:54:46;;;;;;;11.10;9.00;;;;;;;21.02;88.12;99054.73;105190;1264;61213;-21
2023/07/07 08:57:13;;;;;;;8.50;6.60;;;;;;;20.90;89.62;99059.49;105118;1257;61100;-21
2023/07/07 08:59:55;;;;;;;12.50;7.90;;;;;;;21.32;88.26;99062.23;105147;1257;73110;-20
2023/07/07 09:02:47;;;;;;;10.00;7.80;;;;;;;21.33;87.27;99060.39;105167;1258;74209;-20
2023/07/07 09:06:03;;;;;;;9.20;8.00;;;;;;;21.13;87.49;99065.20;105420;1257;72441;-21
2023/07/07 09:08:43;;;;;;;7.00;6.20;;;;;;;20.81;89.17;99072.10;104837;1266;61056;-21
2023/07/07 09:11:25;;;;;;;12.30;8.50;;;;;;;20.98;90.23;99071.45;105293;1265;61226;-21
2023/07/07 09:13:53;;;;;;;10.10;7.80;;;;;;;21.15;88.72;99073.60;105569;1257;73837;-20
2023/07/07 09:16:36;;;;;;;10.20;8.40;;;;;;;21.04;88.79;99077.15;105379;1257;74176;-20
2023/07/07 09:19:10;;;;;;;10.10;6.80;;;;;;;20.87;89.81;99080.42;105263;1257;72560;-21
2023/07/07 09:21:59;;;;;;;9.20;7.40;;;;;;;20.77;91.04;99081.33;105288;1257;61977;-20
2023/07/07 09:24:52;;;;;;;8.90;5.90;;;;;;;21.15;90.23;99080.29;105550;1257;60945;-20
2023/07/07 09:27:24;;;;;;;7.30;5.90;;;;;;;21.34;88.38;99080.04;105473;1257;73774;-20
2023/07/07 09:29:57;;;;;;;8.10;7.30;;;;;;;21.09;87.62;99078.88;105122;1257;74288;-20
2023/07/07 09:32:24;;;;;;;6.20;4.90;;;;;;;20.76;89.41;99080.63;105200;1257;72631;-20
2023/07/07 09:34:51;;;;;;;8.00;6.10;;;;;;;21.06;89.06;99083.92;105602;1257;61061;-20
2023/07/07 09:37:39;;;;;;;8.90;6.60;;;;;;;21.17;87.18;99083.11;105358;1264;61182;-19
2023/07/07 09:40:18;;;;;;;8.00;6.90;;;;;;;20.94;88.84;99086.27;105364;1257;72882;-20
2023/07/07 09:43:08;;;;;;;9.60;7.40;;;;;;;20.83;89.74;99088.48;105575;1258;74360;-19
2023/07/07 09:45:44;;;;;;;7.00;5.90;;;;;;;20.62;91.40;99087.83;105414;1257;72707;-20
2023/07/07 09:48:49;;;;;;;8.30;6.10;;;;;;;21.14;89.68;99090.63;105314;1257;61035;-20
2023/07/07 09:51:39;;;;;;;10.20;6.90;;;;;;;21.00;87.84;99092.16;105228;1264;61154;-20
2023/07/07 09:54:11;;;;;;;15.50;7.10;;;;;;;20.85;89.44;99091.91;105389;1258;74345;-20
2023/07/07 09:57:06;;;;;;;11.90;6.90;;;;;;;20.66;90.40;99095.07;105343;1257;74197;-20
2023/07/07 09:59:36;;;;;;;6.80;5.20;;;;;;;20.50;91.90;99094.98;105122;1257;72522;-20
2023/07/07 10:02:10;;;;;;;7.70;6.90;;;;;;;20.82;89.75;99096.04;105172;1257;61226;-20
2023/07/07 10:04:37;;;;;;;9.50;6.40;;;;;;;20.79;88.90;99099.14;105214;1263;61180;-20
2023/07/07 10:07:06;;;;;;;8.60;7.30;;;;;;;20.66;89.06;99102.71;105599;1254;73843;-20
2023/07/07 10:09:36;;;;;;;7.10;5.20;;;;;;;20.20;90.79;99107.41;105472;1262;74370;-20
2023/07/07 10:12:04;;;;;;;9.00;6.30;;;;;;;20.21;91.52;99106.17;105666;1254;73132;-20
2023/07/07 10:14:33;;;;;;;9.90;7.00;;;;;;;20.49;90.08;99104.43;105518;1254;61065;-20
2023/07/07 10:17:14;;;;;;;11.60;6.70;;;;;;;20.45;90.12;99106.50;105567;1259;61134;-20
2023/07/07 10:19:55;;;;;;;8.80;6.10;;;;;;;20.30;91.14;99104.92;105699;1259;73813;-20
2023/07/07 10:22:22;;;;;;;7.30;5.30;;;;;;;20.24;91.95;99105.34;105601;1258;74793;-20
2023/07/07 10:24:49;;;;;;;7.60;6.00;;;;;;;20.53;89.97;99104.26;105948;1254;71581;-20
2023/07/07 10:27:20;;;;;;;11.20;7.20;;;;;;;20.63;88.21;99101.55;105901;1254;61145;-20
2023/07/07 10:29:47;;;;;;;10.30;8.10;;;;;;;20.32;89.25;99102.45;105696;1259;61705;-21
2023/07/07 10:32:20;;;;;;;7.10;5.40;;;;;;;19.88;91.31;99103.26;105689;1254;73629;-19
2023/07/07 10:34:48;;;;;;;9.10;6.40;;;;;;;19.92;93.07;99102.58;105602;1254;74294;-19
2023/07/07 10:37:20;;;;;;;7.70;6.30;;;;;;;20.34;91.23;99105.86;105547;1257;72793;-21
2023/07/07 10:39:55;;;;;;;8.70;6.40;;;;;;;20.33;89.87;99107.42;105535;1259;61242;-20
2023/07/07 10:42:25;;;;;;;9.10;7.00;;;;;;;20.12;90.52;99105.51;105712;1259;61161;-18
2023/07/07 10:44:53;;;;;;;7.40;5.30;;;;;;;20.02;92.10;99109.94;105692;1254;73535;-20
2023/07/07 10:47:24;;;;;;;9.40;6.80;;;;;;;20.25;90.90;99106.49;105723;1254;74356;-20
2023/07/07 10:49:51;;;;;;;10.70;7.60;;;;;;;20.26;89.38;99110.66;105523;1254;72458;-20
2023/07/07 10:52:21;;;;;;;11.60;7.10;;;;;;;20.03;90.82;99108.55;105820;1254;61042;-20
2023/07/07 10:55:35;;;;;;;8.50;5.80;;;;;;;19.78;92.11;99110.27;105875;1257;61095;-20
2023/07/07 10:58:02;;;;;;;9.30;6.90;;;;;;;19.81;93.10;99111.52;105737;1254;73884;-19
2023/07/07 11:00:44;;;;;;;8.20;6.90;;;;;;;19.98;91.70;99111.23;105577;1254;74326;-20
2023/07/07 11:03:17;;;;;;;10.90;7.40;;;;;;;20.02;91.32;99111.12;105588;1254;72533;-20
2023/07/07 11:06:07;;;;;;;11.20;6.00;;;;;;;19.87;92.94;99113.10;105579;1261;61180;-20
2023/07/07 11:09:00;;;;;;;11.50;7.00;;;;;;;20.00;93.06;99113.64;105695;1259;61146;-20
2023/07/07 11:11:33;;;;;;;12.40;8.90;;;;;;;20.33;91.14;99116.42;105742;1253;73839;-21
2023/07/07 11:14:25;;;;;;;11.10;8.10;;;;;;;20.25;93.11;99116.70;105703;1259;73324;-20
2023/07/07 11:17:28;;;;;;;8.40;5.60;;;;;;;19.92;93.47;99114.53;105581;1259;72449;-20
2023/07/07 11:20:00;;;;;;;11.90;7.80;;;;;;;20.41;91.78;99113.86;105363;1254;61138;-21
2023/07/07 11:22:33;;;;;;;12.70;8.30;;;;;;;20.43;91.05;99115.59;105620;1259;61183;-20
2023/07/07 11:25:38;;;;;;;12.20;8.50;;;;;;;20.45;90.36;99114.19;105675;1254;72300;-20
2023/07/07 11:28:08;;;;;;;10.50;7.30;;;;;;;20.17;91.70;99113.70;105662;1254;73073;-21
2023/07/07 11:30:41;;;;;;;9.60;7.00;;;;;;;20.28;92.59;99116.98;105690;1253;72637;-20
2023/07/07 11:33:24;;;;;;;11.70;8.10;;;;;;;20.27;90.79;99112.21;105648;1254;61216;-20
2023/07/07 11:36:06;;;;;;;10.30;7.50;;;;;;;20.30;91.53;99115.87;105652;1254;61192;-21
2023/07/07 11:38:42;;;;;;;10.10;7.30;;;;;;;20.41;92.38;99117.07;105695;1254;74147;-21
2023/07/07 11:41:17;;;;;;;11.30;7.10;;;;;;;20.37;92.57;99115.96;105731;1254;74470;-20
2023/07/07 11:43:53;;;;;;;10.10;7.90;;;;;;;20.82;90.61;99112.85;105696;1257;72689;-21
2023/07/07 11:46:32;;;;;;;13.10;8.20;;;;;;;20.77;88.69;99114.23;105703;1254;61077;-20
2023/07/07 11:49:18;;;;;;;10.10;8.20;;;;;;;20.44;89.36;99116.85;105728;1257;61128;-20
2023/07/07 11:51:47;;;;;;;9.80;6.80;;;;;;;20.20;91.95;99118.61;105640;1254;73832;-19
2023/07/07 11:54:28;;;;;;;9.30;7.70;;;;;;;20.55;90.10;99113.88;105678;1259;73058;-19
2023/07/07 11:57:24;;;;;;;11.60;8.70;;;;;;;20.64;89.06;99115.48;105610;1255;72661;-19
2023/07/07 12:00:04;;;;;;;11.40;8.50;;;;;;;20.30;89.88;99115.55;105534;1254;62552;-20
2023/07/07 12:02:48;;;;;;;10.20;6.90;;;;;;;20.25;90.83;99117.65;105699;1258;61134;-20
2023/07/07 12:05:30;;;;;;;11.20;7.90;;;;;;;20.61;89.10;99117.77;105656;1254;73953;-20
2023/07/07 12:08:15;;;;;;;10.80;8.60;;;;;;;20.70;87.85;99112.40;105706;1254;74233;-20
2023/07/07 12:10:52;;;;;;;14.10;9.70;;;;;;;20.18;89.92;99117.23;105698;1253;72566;-19
2023/07/07 12:13:28;;;;;;;12.00;8.30;;;;;;;19.97;91.66;99119.94;105713;1259;62016;-20
2023/07/07 12:16:00;;;;;;;10.30;8.10;;;;;;;20.31;91.55;99119.16;105672;1255;61125;-20
2023/07/07 12:18:30;;;;;;;12.80;9.30;;;;;;;20.70;89.47;99116.02;105684;1254;73886;-21
2023/07/07 12:21:17;;;;;;;12.10;9.30;;;;;;;20.56;90.38;99114.42;105655;1259;74421;-20
2023/07/07 12:24:06;;;;;;;12.10;7.90;;;;;;;20.66;90.11;99114.98;105705;1254;72556;-20
2023/07/07 12:26:35;;;;;;;11.50;8.10;;;;;;;21.03;87.80;99115.67;105698;1259;61106;-21
2023/07/07 12:29:04;;;;;;;12.20;7.90;;;;;;;20.94;86.90;99115.15;105708;1254;62450;-21
2023/07/07 12:31:33;;;;;;;11.40;9.70;;;;;;;20.88;86.22;99114.33;105672;1254;74359;-21
2023/07/07 12:34:18;;;;;;;9.90;8.00;;;;;;;20.51;88.29;99118.61;105677;1254;74367;-20
2023/07/07 12:36:45;;;;;;;11.60;8.50;;;;;;;20.47;89.66;99119.59;105488;1255;72640;-20
2023/07/07 12:39:12;;;;;;;10.60;6.90;;;;;;;20.24;88.61;99123.93;105782;1254;61097;-21
2023/07/07 12:41:40;;;;;;;12.10;9.60;;;;;;;20.13;89.42;99124.95;105814;1256;61161;-20
2023/07/07 12:44:09;;;;;;;15.90;9.30;;;;;;;20.24;89.26;99121.17;105879;1254;73698;-20
2023/07/07 12:46:36;;;;;;;14.30;7.60;;;;;;;19.94;89.24;99123.83;105746;1259;74143;-20
2023/07/07 12:49:16;;;;;;;9.50;7.10;;;;;;;19.99;90.37;99122.35;105718;1254;71155;-20
2023/07/07 12:51:43;;;;;;;12.40;7.70;;;;;;;20.24;87.41;99119.75;105623;1257;62653;-20
2023/07/07 12:54:28;;;;;;;10.90;8.50;;;;;;;20.32;86.71;99122.02;105941;1257;61132;-21
2023/07/07 12:57:00;;;;;;;12.10;9.10;;;;;;;20.04;87.40;99124.60;105914;1254;73618;-20
2023/07/07 12:59:34;;;;;;;12.70;8.10;;;;;;;19.48;89.83;99124.45;105704;1254;73951;-20
2023/07/07 13:02:11;;;;;;;13.50;7.90;;;;;;;19.37;91.91;99128.73;105674;1254;72621;-21
2023/07/07 13:04:41;;;;;;;13.10;9.50;;;;;;;19.85;90.40;99127.07;105645;1254;61138;-20
2023/07/07 13:07:17;;;;;;;16.50;9.60;;;;;;;19.82;90.02;99123.30;105558;1252;61137;-21